createdAt,value
2022-08-22T00:01:07.584Z,1.87
2022-08-22T00:02:41.976Z,2.00
2022-08-22T00:02:56.360Z,1.50
2022-08-22T00:03:03.075Z,2.63
2022-08-22T00:03:15.676Z,2.00
2022-08-22T00:03:55.026Z,2.03
2022-08-22T00:06:42.165Z,1.67
2022-08-22T00:09:29.571Z,1.43
2022-08-22T00:12:18.259Z,1.73
2022-08-22T00:14:58.339Z,1.40
2022-08-22T00:17:49.426Z,1.63
2022-08-22T00:20:37.479Z,1.60
2022-08-22T00:23:32.079Z,1.60
2022-08-22T00:26:06.482Z,1.50
2022-08-22T00:28:47.040Z,1.63
2022-08-22T00:31:35.712Z,1.97
2022-08-22T00:34:18.249Z,1.67
2022-08-22T00:37:10.869Z,2.43
2022-08-22T00:39:46.117Z,1.90
2022-08-22T00:42:29.322Z,1.70
2022-08-22T00:45:16.848Z,1.60
2022-08-22T00:47:56.257Z,1.80
2022-08-22T00:50:42.968Z,1.90
2022-08-22T00:53:22.359Z,1.60
2022-08-22T00:56:26.461Z,2.40
2022-08-22T00:59:22.721Z,2.03
2022-08-22T01:02:34.918Z,1.60
2022-08-22T01:05:17.687Z,1.80
2022-08-22T01:07:57.322Z,2.17
2022-08-22T01:10:44.882Z,1.63
2022-08-22T01:13:36.815Z,2.43
2022-08-22T01:16:17.531Z,2.37
2022-08-22T01:19:31.993Z,1.70
2022-08-22T01:22:18.772Z,1.77
2022-08-22T01:28:17.213Z,1.80
2022-08-22T01:31:19.784Z,2.07
2022-08-22T01:34:13.043Z,1.97
2022-08-22T01:37:11.821Z,1.80
2022-08-22T01:40:02.680Z,2.03
2022-08-22T01:42:47.687Z,1.67
2022-08-22T01:45:14.036Z,1.70
2022-08-22T01:47:54.203Z,2.03
2022-08-22T01:50:27.061Z,2.13
2022-08-22T01:53:04.517Z,2.30
2022-08-22T01:56:05.584Z,1.93
2022-08-22T01:58:36.199Z,2.23
2022-08-22T02:01:17.667Z,1.83
2022-08-22T02:04:00.944Z,1.97
2022-08-22T02:06:49.185Z,2.00
2022-08-22T02:09:52.397Z,1.80
2022-08-22T02:12:25.617Z,2.23
2022-08-22T02:15:12.436Z,1.53
2022-08-22T02:18:02.323Z,1.80
2022-08-22T02:20:40.629Z,2.17
2022-08-22T02:23:32.481Z,1.87
2022-08-22T02:26:01.609Z,1.97
2022-08-22T02:28:41.087Z,2.47
2022-08-22T02:31:33.090Z,1.97
2022-08-22T02:34:03.261Z,2.33
2022-08-22T02:36:40.446Z,2.30
2022-08-22T02:39:45.786Z,2.00
2022-08-22T02:42:34.365Z,2.17
2022-08-22T02:45:21.411Z,2.30
2022-08-22T02:48:14.747Z,1.90
2022-08-22T02:51:01.535Z,2.10
2022-08-22T02:54:02.210Z,2.03
2022-08-22T02:56:37.207Z,1.90
2022-08-22T02:59:32.111Z,1.80
2022-08-22T03:02:37.044Z,1.97
2022-08-22T03:05:30.369Z,2.07
2022-08-22T03:08:05.169Z,2.33
2022-08-22T03:10:40.935Z,1.90
2022-08-22T03:13:12.004Z,2.43
2022-08-22T03:15:49.227Z,2.70
2022-08-22T03:18:22.716Z,2.30
2022-08-22T03:20:59.152Z,2.00
2022-08-22T03:23:28.404Z,2.30
2022-08-22T03:26:07.622Z,2.27
2022-08-22T03:29:00.503Z,2.47
2022-08-22T03:31:29.137Z,2.00
2022-08-22T03:34:31.164Z,2.57
2022-08-22T03:37:00.437Z,2.00
2022-08-22T03:39:48.703Z,2.20
2022-08-22T03:42:50.061Z,2.07
2022-08-22T03:45:25.955Z,2.10
2022-08-22T03:48:13.558Z,2.27
2022-08-22T03:50:55.178Z,2.63
2022-08-22T03:53:46.275Z,2.27
2022-08-22T03:56:26.181Z,2.20
2022-08-22T03:59:34.399Z,2.20
2022-08-22T04:02:42.338Z,2.20
2022-08-22T04:05:33.989Z,2.20
2022-08-22T04:08:26.749Z,2.20
2022-08-22T04:11:34.553Z,2.00
2022-08-22T04:14:15.830Z,2.20
2022-08-22T04:17:11.412Z,2.33
2022-08-22T04:19:46.793Z,2.80
2022-08-22T04:22:13.226Z,2.20
2022-08-22T04:24:55.129Z,2.47
2022-08-22T04:27:36.611Z,1.90
2022-08-22T04:30:18.439Z,2.03
2022-08-22T04:32:52.906Z,2.27
2022-08-22T04:35:31.289Z,2.30
2022-08-22T04:38:22.099Z,2.13
2022-08-22T04:40:54.274Z,2.17
2022-08-22T04:43:40.400Z,2.63
2022-08-22T04:46:23.677Z,2.50
2022-08-22T04:48:59.161Z,2.43
2022-08-22T04:51:41.500Z,2.30
2022-08-22T04:54:29.606Z,2.73
2022-08-22T04:57:09.309Z,2.50
2022-08-22T04:59:36.562Z,2.40
2022-08-22T05:02:08.602Z,2.10
2022-08-22T05:04:40.984Z,2.50
2022-08-22T05:07:15.098Z,2.50
2022-08-22T05:09:53.752Z,2.10
2022-08-22T05:12:27.078Z,2.80
2022-08-22T05:15:23.137Z,2.30
2022-08-22T05:17:53.254Z,2.90
2022-08-22T05:20:23.489Z,2.30
2022-08-22T05:23:00.084Z,2.30
2022-08-22T05:25:30.915Z,2.70
2022-08-22T05:28:12.152Z,2.20
2022-08-22T05:30:39.971Z,2.27
2022-08-22T05:33:16.427Z,2.13
2022-08-22T05:35:59.867Z,2.57
2022-08-22T05:38:35.143Z,2.60
2022-08-22T05:41:08.618Z,2.23
2022-08-22T05:43:40.613Z,2.30
2022-08-22T05:46:15.965Z,2.43
2022-08-22T05:48:59.854Z,2.67
2022-08-22T05:51:36.434Z,2.77
2022-08-22T05:54:22.849Z,3.17
2022-08-22T05:57:26.311Z,2.10
2022-08-22T06:00:01.177Z,2.67
2022-08-22T06:03:01.365Z,2.67
2022-08-22T06:05:32.857Z,2.63
2022-08-22T06:08:14.248Z,2.60
2022-08-22T06:10:48.274Z,2.40
2022-08-22T06:13:34.877Z,2.67
2022-08-22T06:16:25.992Z,2.50
2022-08-22T06:18:53.250Z,2.80
2022-08-22T06:21:33.726Z,2.87
2022-08-22T06:24:09.657Z,2.07
2022-08-22T06:26:39.972Z,2.60
2022-08-22T06:29:08.523Z,2.90
2022-08-22T06:31:48.096Z,3.10
2022-08-22T06:34:18.066Z,3.40
2022-08-22T06:36:48.470Z,2.70
2022-08-22T06:39:18.448Z,3.70
2022-08-22T06:41:55.062Z,3.50
2022-08-22T06:44:26.919Z,3.50
2022-08-22T06:46:57.867Z,3.00
2022-08-22T06:49:26.708Z,3.20
2022-08-22T06:51:59.865Z,3.00
2022-08-22T06:54:34.286Z,2.83
2022-08-22T06:57:03.297Z,3.30
2022-08-22T06:59:33.669Z,3.47
2022-08-22T07:02:16.457Z,3.17
2022-08-22T07:04:43.547Z,3.40
2022-08-22T07:07:10.028Z,3.93
2022-08-22T07:09:40.333Z,3.20
2022-08-22T07:12:19.974Z,3.83
2022-08-22T07:14:52.007Z,4.00
2022-08-22T07:17:22.738Z,3.83
2022-08-22T07:20:08.302Z,3.20
2022-08-22T07:22:37.435Z,3.63
2022-08-22T07:25:12.708Z,3.27
2022-08-22T07:27:48.852Z,3.60
2022-08-22T07:30:28.084Z,3.50
2022-08-22T07:33:25.678Z,3.67
2022-08-22T07:35:53.581Z,4.40
2022-08-22T07:38:43.025Z,4.10
2022-08-22T07:41:20.788Z,4.47
2022-08-22T07:44:19.248Z,3.30
2022-08-22T07:47:11.448Z,5.60
2022-08-22T07:49:57.562Z,5.50
2022-08-22T07:52:25.056Z,4.33
2022-08-22T07:55:20.665Z,4.50
2022-08-22T07:57:55.489Z,4.40
2022-08-22T08:00:23.684Z,5.47
2022-08-22T08:02:54.271Z,5.80
2022-08-22T08:05:24.001Z,5.23
2022-08-22T08:07:53.889Z,5.07
2022-08-22T08:10:28.458Z,4.47
2022-08-22T08:13:02.334Z,4.80
2022-08-22T08:15:32.197Z,4.10
2022-08-22T08:18:03.783Z,4.60
2022-08-22T08:20:32.472Z,4.10
2022-08-22T08:22:59.521Z,3.40
2022-08-22T08:25:29.305Z,3.13
2022-08-22T08:28:17.139Z,2.80
2022-08-22T08:30:55.307Z,3.20
2022-08-22T08:33:26.924Z,3.30
2022-08-22T08:36:19.520Z,2.70
2022-08-22T08:39:14.129Z,2.90
2022-08-22T08:42:03.385Z,2.50
2022-08-22T08:44:38.840Z,3.10
2022-08-22T08:47:42.808Z,2.47
2022-08-22T08:50:24.046Z,3.00
2022-08-22T08:52:53.179Z,2.47
2022-08-22T08:55:30.815Z,4.13
2022-08-22T08:58:07.020Z,5.17
2022-08-22T09:00:51.141Z,5.17
2022-08-22T09:03:59.238Z,3.07
2022-08-22T09:09:35.150Z,5.23
2022-08-22T09:12:13.563Z,3.30
2022-08-22T09:15:11.810Z,3.83
2022-08-22T09:18:04.657Z,2.57
2022-08-22T09:20:49.290Z,3.27
2022-08-22T09:23:53.902Z,3.17
2022-08-22T09:26:52.098Z,2.53
2022-08-22T09:29:55.192Z,2.20
2022-08-22T09:32:42.276Z,2.70
2022-08-22T09:35:27.380Z,2.90
2022-08-22T09:37:53.827Z,2.60
2022-08-22T09:40:15.327Z,5.27
2022-08-22T09:40:52.279Z,2.63
2022-08-22T09:43:24.700Z,2.90
2022-08-22T09:46:06.065Z,3.03
2022-08-22T09:49:07.776Z,2.73
2022-08-22T09:52:15.145Z,2.60
2022-08-22T09:55:41.032Z,3.30
2022-08-22T09:58:41.763Z,2.77
2022-08-22T10:01:33.309Z,3.10
2022-08-22T10:04:26.103Z,2.70
2022-08-22T10:07:12.174Z,2.47
2022-08-22T10:09:58.824Z,3.43
2022-08-22T10:12:36.570Z,3.00
2022-08-22T10:15:41.195Z,3.33
2022-08-22T10:18:22.540Z,2.80
2022-08-22T10:21:09.491Z,2.40
2022-08-22T10:23:45.836Z,2.83
2022-08-22T10:26:44.428Z,3.20
2022-08-22T10:29:25.934Z,3.50
2022-08-22T10:32:27.016Z,3.20
2022-08-22T10:34:59.597Z,2.90
2022-08-22T10:37:53.356Z,2.53
2022-08-22T10:40:29.147Z,2.97
2022-08-22T10:43:07.945Z,2.67
2022-08-22T10:45:39.714Z,2.77
2022-08-22T10:48:30.650Z,3.07
2022-08-22T10:51:43.136Z,2.73
2022-08-22T10:54:37.347Z,2.80
2022-08-22T10:57:26.802Z,3.17
2022-08-22T11:00:22.726Z,3.60
2022-08-22T11:03:02.433Z,3.27
2022-08-22T11:05:35.451Z,2.90
2022-08-22T11:08:34.619Z,2.90
2022-08-22T11:11:19.043Z,3.00
2022-08-22T11:14:19.267Z,2.90
2022-08-22T11:16:56.383Z,3.23
2022-08-22T11:19:34.018Z,3.43
2022-08-22T11:22:25.353Z,2.63
2022-08-22T11:25:35.844Z,3.00
2022-08-22T11:28:05.381Z,3.00
2022-08-22T11:30:44.914Z,3.00
2022-08-22T11:33:33.813Z,3.20
2022-08-22T11:36:42.232Z,2.60
2022-08-22T11:39:30.669Z,3.10
2022-08-22T11:42:06.697Z,3.03
2022-08-22T11:44:50.197Z,3.17
2022-08-22T11:47:24.802Z,3.13
2022-08-22T11:50:13.429Z,3.00
2022-08-22T11:52:55.546Z,3.10
2022-08-22T11:55:29.617Z,3.37
2022-08-22T11:58:06.737Z,2.87
2022-08-22T12:00:55.280Z,3.13
2022-08-22T12:03:36.570Z,2.57
2022-08-22T12:06:39.327Z,2.90
2022-08-22T12:09:27.776Z,3.30
2022-08-22T12:12:33.991Z,2.70
2022-08-22T12:15:08.940Z,2.97
2022-08-22T12:18:00.943Z,3.33
2022-08-22T12:21:00.441Z,2.73
2022-08-22T12:23:48.769Z,3.37
2022-08-22T12:26:55.691Z,2.60
2022-08-22T12:29:57.651Z,2.77
2022-08-22T12:32:39.854Z,2.87
2022-08-22T12:35:16.643Z,3.00
2022-08-22T12:38:28.453Z,3.57
2022-08-22T12:41:12.187Z,3.10
2022-08-22T12:44:06.232Z,2.67
2022-08-22T12:46:52.124Z,2.53
2022-08-22T12:49:36.885Z,3.00
2022-08-22T12:52:25.064Z,3.83
2022-08-22T12:55:08.950Z,2.90
2022-08-22T12:57:56.584Z,3.00
2022-08-22T13:00:40.287Z,2.83
2022-08-22T13:03:13.027Z,3.13
2022-08-22T13:05:56.287Z,2.80
2022-08-22T13:08:33.369Z,3.13
2022-08-22T13:11:22.833Z,3.10
2022-08-22T13:13:57.318Z,2.87
2022-08-22T13:16:26.185Z,2.90
2022-08-22T13:19:00.344Z,2.53
2022-08-22T13:21:39.940Z,2.93
2022-08-22T13:24:12.397Z,2.90
2022-08-22T13:26:58.295Z,3.20
2022-08-22T13:29:39.552Z,3.33
2022-08-22T13:32:18.910Z,2.73
2022-08-22T13:34:55.010Z,2.93
2022-08-22T13:37:29.014Z,2.77
2022-08-22T13:40:03.740Z,3.10
2022-08-22T13:42:40.073Z,2.77
2022-08-22T13:45:14.070Z,2.90
2022-08-22T13:47:49.261Z,3.50
2022-08-22T13:50:23.070Z,3.10
2022-08-22T13:53:05.734Z,2.70
2022-08-22T13:55:43.989Z,2.60
2022-08-22T13:58:31.536Z,2.90
2022-08-22T14:01:25.567Z,2.80
2022-08-22T14:03:54.834Z,2.40
2022-08-22T14:06:36.950Z,2.50
2022-08-22T14:09:32.395Z,2.90
2022-08-22T14:12:22.818Z,2.83
2022-08-22T14:14:56.825Z,2.70
2022-08-22T14:17:32.617Z,3.10
2022-08-22T14:20:11.198Z,2.90
2022-08-22T14:22:40.915Z,2.50
2022-08-22T14:25:17.045Z,3.00
2022-08-22T14:27:58.077Z,2.70
2022-08-22T14:30:29.850Z,2.53
2022-08-22T14:33:13.206Z,2.80
2022-08-22T14:35:54.805Z,2.87
2022-08-22T14:38:40.614Z,3.00
2022-08-22T14:41:23.444Z,2.83
2022-08-22T14:44:00.415Z,2.80
2022-08-22T14:46:53.325Z,2.67
2022-08-22T14:49:28.635Z,2.80
2022-08-22T14:52:43.318Z,2.63
2022-08-22T14:55:20.491Z,4.30
2022-08-22T14:58:00.588Z,3.00
2022-08-22T15:00:39.736Z,2.17
2022-08-22T15:03:15.972Z,2.57
2022-08-22T15:05:59.286Z,3.37
2022-08-22T15:08:34.051Z,2.60
2022-08-22T15:11:22.310Z,2.93
2022-08-22T15:14:13.690Z,2.57
2022-08-22T15:16:44.942Z,2.77
2022-08-22T15:19:27.348Z,3.20
2022-08-22T15:22:11.226Z,2.63
2022-08-22T15:24:57.476Z,2.60
2022-08-22T15:27:26.525Z,2.93
2022-08-22T15:29:57.640Z,2.80
2022-08-22T15:32:28.275Z,3.00
2022-08-22T15:35:08.561Z,2.67
2022-08-22T15:38:01.568Z,2.70
2022-08-22T15:40:42.264Z,2.93
2022-08-22T15:43:23.615Z,3.10
2022-08-22T15:46:07.081Z,3.40
2022-08-22T15:48:39.046Z,2.60
2022-08-22T15:51:10.253Z,3.10
2022-08-22T15:54:00.687Z,2.27
2022-08-22T15:56:30.606Z,2.30
2022-08-22T15:59:21.317Z,2.63
2022-08-22T16:01:55.133Z,2.67
2022-08-22T16:04:35.519Z,2.73
2022-08-22T16:07:19.033Z,3.07
2022-08-22T16:09:50.466Z,2.90
2022-08-22T16:12:45.764Z,3.00
2022-08-22T16:15:56.379Z,3.43
2022-08-22T16:18:42.642Z,3.40
2022-08-22T16:21:14.228Z,3.70
2022-08-22T16:23:49.928Z,3.60
2022-08-22T16:26:16.532Z,3.10
2022-08-22T16:28:59.139Z,3.20
2022-08-22T16:31:33.731Z,3.17
2022-08-22T16:34:26.073Z,3.20
2022-08-22T16:37:27.544Z,3.10
2022-08-22T16:40:01.574Z,3.20
2022-08-22T16:43:08.336Z,4.57
2022-08-22T16:45:53.221Z,3.20
2022-08-22T16:48:33.350Z,4.40
2022-08-22T16:51:18.708Z,4.00
2022-08-22T16:54:40.477Z,4.23
2022-08-22T16:57:30.465Z,4.40
2022-08-22T17:00:25.749Z,3.80
2022-08-22T17:02:58.223Z,4.20
2022-08-22T17:05:46.406Z,4.50
2022-08-22T17:08:19.589Z,3.87
2022-08-22T17:11:01.573Z,4.17
2022-08-22T17:13:33.849Z,4.10
2022-08-22T17:16:23.741Z,4.23
2022-08-22T17:19:12.922Z,3.60
2022-08-22T17:21:51.669Z,3.10
2022-08-22T17:24:31.824Z,2.90
2022-08-22T17:27:27.183Z,2.93
2022-08-22T17:30:02.616Z,3.20
2022-08-22T17:32:59.851Z,5.13
2022-08-22T17:35:44.235Z,3.23
2022-08-22T17:38:51.837Z,3.07
2022-08-22T17:41:46.011Z,3.30
2022-08-22T17:44:17.333Z,3.50
2022-08-22T17:46:55.327Z,3.37
2022-08-22T17:49:51.019Z,3.43
2022-08-22T17:52:35.764Z,2.80
2022-08-22T17:55:12.908Z,2.90
2022-08-22T17:57:57.515Z,2.97
2022-08-22T18:00:24.247Z,3.13
2022-08-22T18:03:02.265Z,2.67
2022-08-22T18:05:36.488Z,2.50
2022-08-22T18:11:16.463Z,2.70
2022-08-22T18:14:05.275Z,3.10
2022-08-22T18:16:45.889Z,3.40
2022-08-22T18:19:36.822Z,3.20
2022-08-22T18:22:12.767Z,2.90
2022-08-22T18:24:47.889Z,3.13
2022-08-22T18:27:34.762Z,3.13
2022-08-22T18:30:11.030Z,3.40
2022-08-22T18:32:46.794Z,3.07
2022-08-22T18:35:22.454Z,3.00
2022-08-22T18:38:19.249Z,2.90
2022-08-22T18:40:53.620Z,3.27
2022-08-22T18:43:36.093Z,2.83
2022-08-22T18:46:24.745Z,3.00
2022-08-22T18:49:14.180Z,3.50
2022-08-22T18:51:38.850Z,3.33
2022-08-22T18:54:05.286Z,2.80
2022-08-22T18:56:33.059Z,2.63
2022-08-22T18:59:30.866Z,3.07
2022-08-22T19:02:18.709Z,3.70
2022-08-22T19:05:11.949Z,3.17
2022-08-22T19:07:55.292Z,2.50
2022-08-22T19:10:58.876Z,3.77
2022-08-22T19:13:46.454Z,3.13
2022-08-22T19:16:37.830Z,3.60
2022-08-22T19:19:50.458Z,3.37
2022-08-22T19:22:19.854Z,2.77
2022-08-22T19:25:27.725Z,2.87
2022-08-22T19:28:06.305Z,3.30
2022-08-22T19:31:21.621Z,3.00
2022-08-22T19:34:13.693Z,3.20
2022-08-22T19:36:40.565Z,3.20
2022-08-22T19:39:09.722Z,3.23
2022-08-22T19:41:58.017Z,3.13
2022-08-22T19:44:27.357Z,3.47
2022-08-22T19:47:29.289Z,2.80
2022-08-22T19:50:16.849Z,2.90
2022-08-22T19:53:03.190Z,3.10
2022-08-22T19:55:38.874Z,3.00
2022-08-22T19:58:10.177Z,3.27
2022-08-22T20:00:54.269Z,2.90
2022-08-22T20:03:40.574Z,3.10
2022-08-22T20:06:44.095Z,3.13
2022-08-22T20:09:23.342Z,3.10
2022-08-22T20:12:13.274Z,2.93
2022-08-22T20:14:44.566Z,2.90
2022-08-22T20:17:25.937Z,3.50
2022-08-22T20:23:00.533Z,2.80
2022-08-22T20:25:42.500Z,2.90
2022-08-22T20:28:29.827Z,2.90
2022-08-22T20:31:07.548Z,2.73
2022-08-22T20:33:37.815Z,2.73
2022-08-22T20:36:18.578Z,3.23
2022-08-22T20:38:58.979Z,2.83
2022-08-22T20:41:40.517Z,2.47
2022-08-22T20:44:12.454Z,3.20
2022-08-22T20:46:55.067Z,2.67
2022-08-22T20:49:29.409Z,3.00
2022-08-22T20:51:59.462Z,3.43
2022-08-22T20:54:30.935Z,2.90
2022-08-22T20:57:16.901Z,2.73
2022-08-22T20:59:52.787Z,3.30
2022-08-22T21:02:24.368Z,2.90
2022-08-22T21:04:57.129Z,3.00
2022-08-22T21:07:32.978Z,2.40
2022-08-22T21:10:39.815Z,3.13
2022-08-22T21:13:28.269Z,2.90
2022-08-22T21:15:59.933Z,2.87
2022-08-22T21:18:33.877Z,2.83
2022-08-22T21:21:18.032Z,3.00
2022-08-22T21:23:47.296Z,2.50
2022-08-22T21:26:19.694Z,2.97
2022-08-22T21:28:49.174Z,2.77
2022-08-22T21:31:21.322Z,2.70
2022-08-22T21:33:50.436Z,3.27
2022-08-22T21:36:20.522Z,2.50
2022-08-22T21:38:52.568Z,2.90
2022-08-22T21:42:07.733Z,3.30
2022-08-22T21:44:37.043Z,2.77
2022-08-22T21:47:30.902Z,3.30
2022-08-22T21:50:13.109Z,3.50
2022-08-22T21:53:00.148Z,3.07
2022-08-22T21:55:30.492Z,3.10
2022-08-22T21:58:06.486Z,2.73
2022-08-22T22:00:48.569Z,2.50
2022-08-22T22:03:17.753Z,2.73
2022-08-22T22:05:44.676Z,3.13
2022-08-22T22:08:11.881Z,2.87
2022-08-22T22:10:40.679Z,2.97
2022-08-22T22:13:08.266Z,3.20
2022-08-22T22:15:40.267Z,2.63
2022-08-22T22:18:06.910Z,3.03
2022-08-22T22:20:34.044Z,3.53
2022-08-22T22:23:00.601Z,2.70
2022-08-22T22:25:40.759Z,3.20
2022-08-22T22:28:30.899Z,3.00
2022-08-22T22:30:57.415Z,2.70
2022-08-22T22:33:29.929Z,3.47
2022-08-22T22:35:59.904Z,3.60
2022-08-22T22:38:26.369Z,3.33
2022-08-22T22:40:52.899Z,3.20
2022-08-22T22:43:19.651Z,2.73
2022-08-22T22:45:46.276Z,3.30
2022-08-22T22:48:17.411Z,3.50
2022-08-22T22:50:50.883Z,3.67
2022-08-22T22:53:19.514Z,3.90
2022-08-22T22:55:48.066Z,3.23
2022-08-22T22:58:27.369Z,3.50
2022-08-22T23:00:53.829Z,3.40
2022-08-22T23:03:21.428Z,3.40
2022-08-22T23:05:47.936Z,4.43
2022-08-22T23:08:14.341Z,3.30
2022-08-22T23:10:40.782Z,3.83
2022-08-22T23:13:07.269Z,4.23
2022-08-22T23:15:33.671Z,3.70
2022-08-22T23:18:00.414Z,3.97
2022-08-22T23:20:26.944Z,3.30
2022-08-22T23:22:53.424Z,3.50
2022-08-22T23:25:19.953Z,3.63
2022-08-22T23:27:58.990Z,3.10
2022-08-22T23:30:25.625Z,3.87
2022-08-22T23:32:52.057Z,3.53
2022-08-22T23:35:18.463Z,3.47
2022-08-22T23:37:44.966Z,2.70
2022-08-22T23:40:11.677Z,3.33
2022-08-22T23:42:38.197Z,3.00
2022-08-22T23:45:05.117Z,3.43
2022-08-22T23:47:31.469Z,3.33
2022-08-22T23:49:57.948Z,3.40
2022-08-22T23:52:25.368Z,3.50
2022-08-22T23:54:54.509Z,3.50
2022-08-22T23:57:26.358Z,3.40
2022-08-22T23:59:57.826Z,3.23
